Time;durP1;ratioP1;P1;durP2;ratioP2;P2;SDS_P1;SDS_P2;PMS_P1;PMS_P2;Temp;Humidity;BMP_temperature;BMP_pressure;BME280_temperature;BME280_humidity;BME280_pressure;Samples;Min_cycle;Max_cycle;Signal;HPM_P1;HPM_P2
2022/03/22 00:02:23;;;;;;;40.10;20.75;;;;;;;2.51;56.40;103344.66;5050533;28;20053;-50
2022/03/22 00:04:50;;;;;;;38.22;19.45;;;;;;;2.49;56.87;103342.78;5050667;28;20060;-48
2022/03/22 00:07:16;;;;;;;40.13;20.30;;;;;;;2.47;56.82;103336.66;5050435;28;20052;-51
2022/03/22 00:09:43;;;;;;;45.78;22.30;;;;;;;2.42;57.06;103332.91;5050560;28;20124;-50
2022/03/22 00:12:10;;;;;;;40.88;21.58;;;;;;;2.38;57.08;103342.06;5050474;28;20079;-51
2022/03/22 00:14:36;;;;;;;39.85;20.42;;;;;;;2.32;57.33;103341.66;5050313;28;20048;-49
2022/03/22 00:17:04;;;;;;;44.10;20.92;;;;;;;2.25;58.10;103336.91;5050295;28;20041;-51
2022/03/22 00:19:31;;;;;;;36.05;18.83;;;;;;;2.21;57.96;103333.28;5050022;28;20040;-47
2022/03/22 00:21:57;;;;;;;37.92;19.08;;;;;;;2.18;58.02;103339.84;5050735;28;20048;-47
2022/03/22 00:24:24;;;;;;;48.58;23.05;;;;;;;2.15;58.26;103337.97;5050355;28;20604;-50
2022/03/22 00:26:50;;;;;;;45.45;21.85;;;;;;;2.15;58.05;103331.97;5050306;28;20526;-49
2022/03/22 00:29:17;;;;;;;42.50;20.13;;;;;;;2.11;58.11;103335.13;5048504;28;20048;-47
2022/03/22 00:31:43;;;;;;;44.30;21.10;;;;;;;2.07;58.02;103334.00;5049870;28;20502;-48
2022/03/22 00:34:13;;;;;;;41.60;21.13;;;;;;;2.04;58.44;103338.00;5048766;28;20056;-47
2022/03/22 00:36:39;;;;;;;38.83;19.80;;;;;;;1.96;58.76;103334.06;5050289;28;20056;-48
2022/03/22 00:39:06;;;;;;;41.30;22.30;;;;;;;1.90;58.87;103335.41;5049820;28;20053;-48
2022/03/22 00:41:32;;;;;;;42.88;21.20;;;;;;;1.86;58.99;103333.44;5049842;28;20049;-47
2022/03/22 00:43:59;;;;;;;45.00;22.38;;;;;;;1.82;59.09;103325.44;5050093;28;20045;-46
2022/03/22 00:46:25;;;;;;;46.92;21.33;;;;;;;1.77;58.95;103332.81;5049455;28;20049;-51
2022/03/22 00:48:52;;;;;;;48.38;24.05;;;;;;;1.73;59.32;103328.25;5049841;28;20041;-49
2022/03/22 00:51:20;;;;;;;53.53;26.05;;;;;;;1.73;59.01;103330.81;5048935;28;20060;-47
2022/03/22 00:53:47;;;;;;;45.53;23.30;;;;;;;1.72;59.52;103326.50;5049593;28;20045;-46
2022/03/22 00:56:13;;;;;;;41.78;21.73;;;;;;;1.69;59.59;103323.72;5049700;28;20049;-47
2022/03/22 00:58:41;;;;;;;43.75;21.13;;;;;;;1.66;59.29;103330.28;5049664;28;20554;-47
2022/03/22 01:01:07;;;;;;;39.97;19.77;;;;;;;1.60;59.53;103333.31;5049305;28;20067;-49
2022/03/22 01:03:33;;;;;;;41.10;20.70;;;;;;;1.56;60.05;103338.97;5048195;28;20497;-46
2022/03/22 01:06:01;;;;;;;43.83;21.00;;;;;;;1.50;60.29;103330.88;5048946;28;20051;-47
2022/03/22 01:08:29;;;;;;;43.67;21.73;;;;;;;1.46;60.26;103326.34;5049418;28;20049;-48
2022/03/22 01:10:56;;;;;;;42.72;22.00;;;;;;;1.44;60.46;103320.22;5049435;28;20692;-48
2022/03/22 01:13:24;;;;;;;43.55;20.73;;;;;;;1.42;60.46;103321.78;5049287;28;20056;-49
2022/03/22 01:15:51;;;;;;;40.10;20.85;;;;;;;1.41;60.55;103320.00;5049246;28;20056;-48
2022/03/22 01:18:18;;;;;;;41.53;21.33;;;;;;;1.39;60.87;103316.47;5048826;28;20049;-47
2022/03/22 01:20:47;;;;;;;41.67;20.83;;;;;;;1.39;60.50;103316.47;5049084;28;20040;-48
2022/03/22 01:23:14;;;;;;;45.35;21.25;;;;;;;1.36;60.57;103317.13;5049299;28;20048;-48
2022/03/22 01:25:43;;;;;;;41.30;21.73;;;;;;;1.36;60.52;103316.25;5049029;28;20127;-47
2022/03/22 01:28:12;;;;;;;40.17;20.65;;;;;;;1.34;60.76;103315.25;5047556;28;20061;-52
2022/03/22 01:30:39;;;;;;;39.38;19.90;;;;;;;1.32;60.75;103314.25;5048725;28;20049;-47
2022/03/22 01:33:06;;;;;;;47.65;22.38;;;;;;;1.28;60.92;103313.16;5049276;28;20040;-49
2022/03/22 01:35:33;;;;;;;46.92;20.83;;;;;;;1.27;60.74;103314.84;5048945;28;20144;-51
2022/03/22 01:38:00;;;;;;;42.47;20.10;;;;;;;1.26;60.74;103307.06;5048872;28;20486;-48
2022/03/22 01:40:28;;;;;;;43.75;21.27;;;;;;;1.24;60.86;103312.06;5048683;28;20052;-47
2022/03/22 01:42:57;;;;;;;46.47;23.35;;;;;;;1.23;60.93;103314.50;5048463;28;20059;-46
2022/03/22 01:45:24;;;;;;;41.30;21.65;;;;;;;1.23;60.91;103315.41;5048735;28;21292;-47
2022/03/22 01:47:52;;;;;;;49.40;24.00;;;;;;;1.24;60.91;103312.06;5047147;28;20051;-46
2022/03/22 01:50:20;;;;;;;49.78;23.27;;;;;;;1.24;61.13;103312.06;5048490;28;20044;-46
2022/03/22 01:52:47;;;;;;;44.22;21.10;;;;;;;1.21;60.95;103310.97;5048923;28;20547;-49
2022/03/22 01:55:16;;;;;;;47.05;22.13;;;;;;;1.19;61.01;103308.28;5047090;28;20140;-47
2022/03/22 01:57:43;;;;;;;49.33;21.52;;;;;;;1.16;61.13;103302.97;5047976;28;20493;-46
2022/03/22 02:00:14;;;;;;;46.75;22.40;;;;;;;1.15;61.05;103305.41;5048787;28;20061;-49
2022/03/22 02:08:13;;;;;;;51.92;23.48;;;;;;;1.13;61.05;103302.75;5049134;28;20107;-47
2022/03/22 02:10:40;;;;;;;46.90;23.02;;;;;;;1.10;61.55;103307.66;5048368;28;20049;-48
2022/03/22 02:13:07;;;;;;;49.40;24.13;;;;;;;1.07;61.84;103311.66;5048312;28;20053;-46
2022/03/22 02:15:34;;;;;;;44.53;22.27;;;;;;;1.04;61.85;103312.31;5047717;28;20057;-46
2022/03/22 02:18:01;;;;;;;52.58;23.40;;;;;;;1.04;61.81;103306.28;5047813;28;20045;-46
2022/03/22 02:20:27;;;;;;;41.45;21.33;;;;;;;1.02;61.78;103311.28;5048312;28;20044;-49
2022/03/22 02:22:59;;;;;;;51.05;23.60;;;;;;;1.00;62.04;103310.31;5048531;28;20045;-48
2022/03/22 02:25:27;;;;;;;52.13;25.58;;;;;;;0.99;61.85;103313.63;5047969;28;20048;-50
2022/03/22 02:27:54;;;;;;;57.63;28.08;;;;;;;0.97;62.07;103315.19;5048342;28;20691;-48
2022/03/22 02:30:21;;;;;;;61.70;30.15;;;;;;;0.96;62.08;103313.41;5047921;28;20037;-47
2022/03/22 02:32:52;;;;;;;185.57;71.57;;;;;;;0.97;61.75;103312.63;5047742;28;20401;-51
2022/03/22 02:35:19;;;;;;;352.23;122.22;;;;;;;1.01;61.85;103312.06;5048038;28;20509;-47
2022/03/22 02:37:46;;;;;;;142.43;56.10;;;;;;;1.02;61.51;103306.19;5047942;28;20045;-47
2022/03/22 02:40:13;;;;;;;99.97;39.60;;;;;;;1.02;61.43;103311.28;5048517;28;20490;-47
2022/03/22 02:42:44;;;;;;;121.47;45.83;;;;;;;1.03;61.44;103310.53;5047825;28;20068;-50
2022/03/22 02:45:11;;;;;;;107.18;44.33;;;;;;;1.02;61.34;103313.84;5048369;28;20472;-49
2022/03/22 02:47:38;;;;;;;107.57;44.30;;;;;;;1.01;61.33;103306.97;5048356;28;20079;-47
2022/03/22 02:50:06;;;;;;;87.97;37.10;;;;;;;1.00;61.51;103300.09;5048128;28;20064;-46
2022/03/22 02:52:33;;;;;;;105.95;43.17;;;;;;;0.98;61.60;103310.97;5047806;28;20057;-47
2022/03/22 02:54:59;;;;;;;81.20;35.40;;;;;;;0.96;61.78;103308.31;5048077;28;20090;-46
2022/03/22 02:57:26;;;;;;;125.40;52.60;;;;;;;0.97;61.26;103315.19;5046859;28;20049;-46
2022/03/22 02:59:53;;;;;;;91.47;41.47;;;;;;;0.97;61.38;103315.19;5047921;28;20052;-47
2022/03/22 03:02:20;;;;;;;52.03;22.95;;;;;;;1.00;61.35;103314.53;5047880;28;20052;-46
2022/03/22 03:04:46;;;;;;;61.55;27.35;;;;;;;1.01;61.39;103322.28;5047885;28;20409;-46
2022/03/22 03:07:13;;;;;;;97.20;43.35;;;;;;;1.03;61.37;103318.19;5047516;28;20052;-48
2022/03/22 03:09:39;;;;;;;102.60;43.78;;;;;;;1.03;61.36;103320.72;5048002;28;20056;-50
2022/03/22 03:12:06;;;;;;;65.75;30.75;;;;;;;1.02;61.25;103321.50;5047366;28;20476;-46
2022/03/22 03:14:43;;;;;;;71.97;34.28;;;;;;;1.02;61.32;103318.97;5050311;28;20059;-46
2022/03/22 03:17:13;;;;;;;55.00;24.20;;;;;;;1.03;61.21;103319.84;5051518;28;20084;-50
2022/03/22 03:19:40;;;;;;;43.78;21.20;;;;;;;1.02;61.34;103318.97;5051636;28;20051;-51
2022/03/22 03:22:07;;;;;;;45.47;21.30;;;;;;;0.98;61.36;103314.41;5051050;28;20052;-48
2022/03/22 03:24:34;;;;;;;46.58;22.33;;;;;;;0.97;61.50;103315.19;5051082;28;20052;-49
2022/03/22 03:27:01;;;;;;;48.17;21.27;;;;;;;0.93;61.53;103315.75;5051043;28;20049;-47
2022/03/22 03:29:27;;;;;;;52.33;22.45;;;;;;;0.90;61.44;103313.88;5050712;28;20508;-49
2022/03/22 03:31:54;;;;;;;45.33;21.63;;;;;;;0.88;61.69;103324.75;5051416;28;20037;-46
2022/03/22 03:34:22;;;;;;;37.85;19.48;;;;;;;0.88;61.65;103315.44;5051182;28;20053;-47
2022/03/22 03:36:49;;;;;;;41.83;20.27;;;;;;;0.86;61.77;103318.66;5052284;28;20052;-47
2022/03/22 03:39:16;;;;;;;41.78;20.55;;;;;;;0.84;61.59;103317.66;5050780;28;20068;-47
2022/03/22 03:41:54;;;;;;;50.88;22.90;;;;;;;0.82;61.69;103319.19;5050993;28;20052;-46
2022/03/22 03:47:07;;;;;;;51.40;24.45;;;;;;;0.79;61.50;103319.88;5050879;28;20044;-45
2022/03/22 03:49:38;;;;;;;42.25;20.77;;;;;;;0.77;61.46;103320.53;5050707;28;20044;-45
2022/03/22 03:52:06;;;;;;;43.58;20.13;;;;;;;0.77;61.62;103321.44;5050785;28;20078;-46
2022/03/22 03:54:33;;;;;;;47.63;21.92;;;;;;;0.76;61.45;103327.31;5050613;28;20049;-47
2022/03/22 03:57:00;;;;;;;42.65;19.98;;;;;;;0.79;61.75;103318.97;5052169;28;20078;-46
2022/03/22 03:59:26;;;;;;;45.60;21.63;;;;;;;0.78;61.46;103322.31;5050620;28;20047;-45
2022/03/22 04:01:53;;;;;;;40.03;20.02;;;;;;;0.76;61.23;103318.75;5050454;28;20045;-48
2022/03/22 04:04:19;;;;;;;48.78;21.15;;;;;;;0.74;61.37;103325.41;5050244;28;20068;-48
2022/03/22 04:06:47;;;;;;;45.80;20.65;;;;;;;0.73;61.63;103318.53;5050127;28;20508;-48
2022/03/22 04:09:14;;;;;;;50.17;22.75;;;;;;;0.72;61.37;103311.66;5050440;28;20053;-49
2022/03/22 04:11:40;;;;;;;45.63;21.50;;;;;;;0.69;61.92;103321.66;5050950;28;20367;-47
2022/03/22 04:14:07;;;;;;;43.35;19.33;;;;;;;0.65;62.02;103324.75;5050328;28;20079;-49
2022/03/22 04:16:34;;;;;;;34.05;18.70;;;;;;;0.60;61.97;103319.31;5051697;28;20464;-46
2022/03/22 04:19:00;;;;;;;45.95;21.15;;;;;;;0.56;62.10;103320.75;5050216;28;20060;-47
2022/03/22 04:21:27;;;;;;;39.65;19.70;;;;;;;0.52;62.16;103323.88;5049958;28;20045;-46
2022/03/22 04:23:55;;;;;;;47.95;21.10;;;;;;;0.47;62.68;103324.28;5049490;28;20088;-48
2022/03/22 04:26:22;;;;;;;39.20;20.98;;;;;;;0.47;62.78;103319.16;5049416;28;20056;-46
2022/03/22 04:34:19;;;;;;;45.65;20.00;;;;;;;0.46;62.75;103328.50;5049775;28;20527;-49
2022/03/22 04:36:46;;;;;;;53.67;25.00;;;;;;;0.46;63.05;103323.38;5047878;28;20041;-46
2022/03/22 04:39:14;;;;;;;169.43;73.55;;;;;;;0.45;63.31;103321.59;5049633;28;20123;-46
2022/03/22 04:41:40;;;;;;;78.35;31.38;;;;;;;0.45;63.72;103321.59;5049723;28;20409;-52
2022/03/22 04:44:06;;;;;;;67.30;28.65;;;;;;;0.45;63.74;103320.72;5048969;28;20057;-46
2022/03/22 04:46:33;;;;;;;69.80;29.50;;;;;;;0.47;63.31;103320.06;5049207;28;20049;-46
2022/03/22 04:48:59;;;;;;;108.88;50.60;;;;;;;0.52;63.32;103321.31;5050603;28;20410;-45
2022/03/22 04:56:55;;;;;;;53.20;24.65;;;;;;;0.70;62.49;103315.75;5050361;28;20098;-47
2022/03/22 04:59:24;;;;;;;63.38;27.35;;;;;;;0.75;62.53;103319.53;5050799;28;20048;-46
2022/03/22 05:01:51;;;;;;;51.42;21.75;;;;;;;0.78;62.51;103322.31;5049139;28;20045;-46
2022/03/22 05:04:18;;;;;;;45.70;21.38;;;;;;;0.80;62.68;103315.66;5048772;28;20049;-46
2022/03/22 05:06:44;;;;;;;44.13;20.05;;;;;;;0.81;62.98;103317.44;5048933;28;20072;-46
2022/03/22 05:09:11;;;;;;;66.65;29.23;;;;;;;0.78;63.42;103315.53;5048829;28;20055;-47
2022/03/22 05:11:38;;;;;;;143.48;70.25;;;;;;;0.82;63.10;103322.66;5048997;28;20075;-45
2022/03/22 05:14:08;;;;;;;78.57;41.15;;;;;;;0.87;62.82;103322.97;5048734;28;20045;-47
2022/03/22 05:16:35;;;;;;;67.30;32.40;;;;;;;0.93;63.15;103318.31;5048843;28;20048;-45
2022/03/22 05:19:04;;;;;;;52.63;23.75;;;;;;;1.03;63.18;103323.28;5048681;28;20052;-46
2022/03/22 05:21:30;;;;;;;45.83;21.75;;;;;;;1.12;63.20;103317.97;5048866;28;20076;-46
2022/03/22 05:23:57;;;;;;;54.40;22.58;;;;;;;1.22;63.48;103313.63;5048538;28;20048;-46
2022/03/22 05:26:25;;;;;;;42.40;19.40;;;;;;;1.34;63.43;103322.91;5048738;28;20072;-46
2022/03/22 05:28:52;;;;;;;44.58;20.02;;;;;;;1.43;63.34;103318.44;5048528;28;20051;-46
2022/03/22 05:31:21;;;;;;;51.10;21.80;;;;;;;1.50;63.08;103321.53;5048288;28;20041;-48
2022/03/22 05:33:48;;;;;;;57.75;24.15;;;;;;;1.57;62.89;103320.31;5047769;28;20051;-49
2022/03/22 05:36:15;;;;;;;54.80;26.92;;;;;;;1.64;62.59;103327.63;5047914;28;20072;-47
2022/03/22 05:38:42;;;;;;;57.50;26.70;;;;;;;1.69;62.55;103323.72;5049832;28;20052;-47
2022/03/22 05:41:08;;;;;;;62.60;28.40;;;;;;;1.71;62.19;103322.16;5048575;28;20057;-50
2022/03/22 05:43:36;;;;;;;70.82;29.17;;;;;;;1.78;61.88;103323.47;5047295;28;20159;-47
2022/03/22 05:46:03;;;;;;;88.38;37.13;;;;;;;1.85;61.64;103320.53;5048580;28;20051;-47
2022/03/22 05:48:31;;;;;;;70.97;30.15;;;;;;;1.97;61.78;103320.47;5048232;28;20049;-49
2022/03/22 05:50:58;;;;;;;66.18;29.83;;;;;;;2.14;62.06;103320.84;5048039;28;20489;-47
2022/03/22 05:53:24;;;;;;;70.65;30.67;;;;;;;2.34;61.88;103323.84;5048103;28;20048;-48
2022/03/22 05:55:51;;;;;;;84.00;32.22;;;;;;;2.55;61.37;103325.25;5049267;28;20051;-48
2022/03/22 05:58:17;;;;;;;87.07;35.47;;;;;;;2.80;61.32;103323.50;5048373;28;20056;-47
2022/03/22 06:00:43;;;;;;;76.32;30.15;;;;;;;3.07;60.78;103318.34;5047972;28;20048;-47
2022/03/22 06:03:10;;;;;;;74.57;30.55;;;;;;;3.34;60.48;103320.09;5047760;28;20056;-48
2022/03/22 06:05:38;;;;;;;79.03;31.92;;;;;;;3.63;60.59;103321.00;5046912;28;20052;-51
2022/03/22 06:08:05;;;;;;;75.20;32.85;;;;;;;3.90;59.94;103321.81;5049511;28;20512;-48
2022/03/22 06:10:32;;;;;;;87.25;37.35;;;;;;;4.18;59.13;103317.53;5047365;28;20045;-49
2022/03/22 06:12:59;;;;;;;63.08;29.25;;;;;;;4.49;58.26;103320.19;5047894;28;20056;-51
2022/03/22 06:15:27;;;;;;;81.53;35.55;;;;;;;4.83;57.48;103317.88;5047663;28;20060;-47
2022/03/22 06:17:56;;;;;;;71.57;31.15;;;;;;;5.17;55.56;103314.56;5045991;28;20524;-48
2022/03/22 06:20:24;;;;;;;65.35;30.17;;;;;;;5.51;54.33;103317.28;5047662;28;20048;-47
2022/03/22 06:22:53;;;;;;;62.58;32.30;;;;;;;5.83;53.87;103319.91;5049609;28;20391;-51
2022/03/22 06:25:20;;;;;;;63.20;31.33;;;;;;;6.16;52.82;103314.72;5047337;28;20045;-47
2022/03/22 06:27:49;;;;;;;56.20;30.30;;;;;;;6.46;51.43;103321.44;5047361;28;20044;-48
2022/03/22 06:30:16;;;;;;;69.75;32.55;;;;;;;6.74;50.62;103313.34;5047325;28;20091;-53
2022/03/22 06:32:45;;;;;;;72.63;36.05;;;;;;;7.03;49.96;103319.03;5047640;28;20053;-50
2022/03/22 06:35:12;;;;;;;66.13;29.08;;;;;;;7.31;48.82;103321.22;5047522;28;20063;-47
2022/03/22 06:37:40;;;;;;;60.75;30.50;;;;;;;7.57;46.98;103324.16;5047743;28;20436;-49
2022/03/22 06:40:09;;;;;;;48.38;25.60;;;;;;;7.83;46.42;103309.84;5047512;28;20494;-49
2022/03/22 06:42:36;;;;;;;38.60;23.77;;;;;;;8.18;46.18;103313.94;5047395;28;20041;-47
2022/03/22 06:45:05;;;;;;;53.20;32.38;;;;;;;8.52;45.94;103311.09;5047483;28;20049;-48
2022/03/22 06:47:32;;;;;;;46.88;27.48;;;;;;;8.85;45.04;103306.41;5047507;28;20040;-47
2022/03/22 06:49:59;;;;;;;40.38;23.00;;;;;;;9.18;44.05;103311.13;5051218;28;20504;-46
2022/03/22 06:52:26;;;;;;;41.15;25.15;;;;;;;9.49;43.25;103308.88;5051475;28;20123;-48
2022/03/22 06:54:52;;;;;;;52.20;27.33;;;;;;;9.83;42.37;103315.28;5051098;28;20054;-49
2022/03/22 06:57:20;;;;;;;52.47;28.02;;;;;;;10.15;41.15;103310.34;5052014;28;20051;-48
2022/03/22 06:59:47;;;;;;;47.47;25.25;;;;;;;10.45;41.31;103316.63;5051648;28;20512;-45
2022/03/22 07:02:13;;;;;;;47.35;25.42;;;;;;;10.78;40.41;103313.34;5051614;28;20055;-46
2022/03/22 07:04:40;;;;;;;44.35;25.88;;;;;;;11.06;39.77;103310.78;5051084;28;20474;-46
2022/03/22 07:07:06;;;;;;;50.15;27.63;;;;;;;11.34;38.98;103310.78;5051004;28;20493;-46
2022/03/22 07:09:32;;;;;;;44.35;25.70;;;;;;;11.63;38.77;103316.81;5047299;28;20053;-48
2022/03/22 07:12:00;;;;;;;52.50;27.10;;;;;;;11.89;37.79;103309.78;5039199;28;20041;-49
2022/03/22 07:14:29;;;;;;;47.40;28.02;;;;;;;12.23;37.27;103305.47;5049307;28;20460;-48
2022/03/22 07:16:55;;;;;;;44.45;27.75;;;;;;;12.48;36.82;103306.97;5052295;28;20037;-50
2022/03/22 07:19:23;;;;;;;49.85;28.42;;;;;;;12.81;36.87;103301.69;5055065;28;20502;-54
2022/03/22 07:21:51;;;;;;;41.00;26.85;;;;;;;13.11;36.38;103310.22;5053524;28;20071;-47
2022/03/22 07:24:19;;;;;;;43.17;26.90;;;;;;;13.44;36.11;103306.59;5050722;28;20499;-47
2022/03/22 07:26:46;;;;;;;48.15;28.75;;;;;;;13.65;35.58;103307.06;5051260;28;20049;-51
2022/03/22 07:29:13;;;;;;;46.55;27.40;;;;;;;13.87;35.33;103308.34;5051952;28;20045;-53
2022/03/22 07:31:41;;;;;;;42.78;29.40;;;;;;;14.15;35.70;103304.53;5050870;28;20537;-50
2022/03/22 07:34:10;;;;;;;50.33;30.70;;;;;;;14.43;35.47;103301.53;5052716;28;20053;-51
2022/03/22 07:36:37;;;;;;;48.70;33.72;;;;;;;14.70;35.12;103310.69;5052285;28;20075;-47
2022/03/22 07:39:04;;;;;;;56.50;32.90;;;;;;;14.91;34.89;103305.78;5050073;28;20041;-48
2022/03/22 07:41:31;;;;;;;48.53;32.45;;;;;;;15.23;34.81;103307.97;5053198;28;20049;-48
2022/03/22 07:43:57;;;;;;;52.17;31.73;;;;;;;15.46;34.31;103311.75;5053542;28;20387;-48
2022/03/22 07:46:24;;;;;;;49.83;29.27;;;;;;;15.72;33.79;103305.13;5051655;28;20044;-47
2022/03/22 07:48:52;;;;;;;43.67;29.65;;;;;;;15.94;33.25;103300.13;5050104;28;20052;-51
2022/03/22 07:54:03;;;;;;;39.00;25.67;;;;;;;16.25;33.32;103307.41;5053379;28;20056;-51
2022/03/22 07:56:30;;;;;;;43.85;28.98;;;;;;;16.56;32.61;103302.41;5050405;28;20049;-51
2022/03/22 07:58:57;;;;;;;50.53;31.58;;;;;;;16.74;32.33;103306.97;5040966;28;20425;-54
2022/03/22 08:01:24;;;;;;;53.78;32.42;;;;;;;16.99;32.12;103301.88;5022734;28;20914;-50
2022/03/22 08:03:52;;;;;;;58.58;37.08;;;;;;;17.26;31.20;103308.16;5019543;28;20056;-46
2022/03/22 08:06:18;;;;;;;46.38;29.13;;;;;;;17.34;30.82;103303.81;5043267;28;20048;-47
2022/03/22 08:08:45;;;;;;;40.97;29.38;;;;;;;17.80;30.29;103301.38;5049912;28;20445;-49
2022/03/22 08:11:12;;;;;;;43.75;30.83;;;;;;;18.14;29.51;103303.19;5049672;28;20132;-52
2022/03/22 08:13:39;;;;;;;44.40;29.60;;;;;;;18.49;28.94;103299.69;5051283;28;20482;-49
2022/03/22 08:16:06;;;;;;;44.08;29.92;;;;;;;18.85;28.60;103304.94;5050962;28;20049;-49
2022/03/22 08:18:33;;;;;;;50.42;32.08;;;;;;;19.14;27.93;103306.63;5050122;28;20044;-49
2022/03/22 08:21:01;;;;;;;44.92;29.45;;;;;;;19.14;27.75;103306.63;5050815;28;20486;-47
2022/03/22 08:23:27;;;;;;;47.63;30.75;;;;;;;19.27;27.31;103303.09;5049244;28;20051;-48
2022/03/22 08:25:54;;;;;;;46.80;30.80;;;;;;;19.53;26.83;103305.63;5049379;28;20052;-46
2022/03/22 08:28:21;;;;;;;43.08;31.17;;;;;;;19.57;26.29;103298.59;5049153;28;20130;-47
2022/03/22 08:30:47;;;;;;;49.30;31.60;;;;;;;19.69;26.43;103293.25;5048015;28;20106;-48
2022/03/22 08:33:14;;;;;;;50.28;33.25;;;;;;;19.76;26.42;103295.81;5050823;28;20055;-50
2022/03/22 08:35:43;;;;;;;55.83;34.42;;;;;;;19.81;26.45;103295.84;5050520;28;20060;-57
2022/03/22 08:38:11;;;;;;;52.53;35.33;;;;;;;20.13;26.54;103291.19;5051832;28;20060;-52
2022/03/22 08:40:37;;;;;;;49.58;34.65;;;;;;;20.32;26.33;103293.72;5059563;28;20159;-53
2022/03/22 08:43:06;;;;;;;47.22;32.75;;;;;;;20.38;26.19;103288.38;5053626;28;20047;-49
2022/03/22 08:45:33;;;;;;;44.85;30.92;;;;;;;20.46;26.11;103281.31;5050610;28;20132;-53
2022/03/22 08:48:01;;;;;;;49.50;31.65;;;;;;;20.54;26.03;103279.47;5046891;28;20045;-57
2022/03/22 08:50:27;;;;;;;50.55;32.88;;;;;;;20.63;25.59;103289.91;5053059;28;20045;-56
2022/03/22 08:52:56;;;;;;;42.22;28.50;;;;;;;20.58;24.81;103285.59;5051998;28;20049;-53
2022/03/22 08:55:25;;;;;;;43.70;28.90;;;;;;;20.63;24.21;103289.91;5049253;28;20045;-54
2022/03/22 08:57:52;;;;;;;40.92;28.17;;;;;;;20.61;24.09;103289.06;5048296;28;20041;-48
2022/03/22 09:00:20;;;;;;;47.40;31.33;;;;;;;20.56;23.89;103282.97;5048837;28;20041;-49
2022/03/22 09:02:48;;;;;;;51.05;30.02;;;;;;;20.49;24.13;103281.28;5049910;28;20037;-49
2022/03/22 09:08:01;;;;;;;53.67;35.50;;;;;;;20.01;24.72;103278.13;5050093;28;20048;-57
2022/03/22 09:10:29;;;;;;;48.88;31.88;;;;;;;19.96;24.75;103274.66;5050013;28;20053;-49
2022/03/22 09:12:57;;;;;;;45.53;31.25;;;;;;;19.95;24.70;103277.31;5047957;28;20040;-56
2022/03/22 09:15:26;;;;;;;50.10;32.17;;;;;;;19.85;24.73;103265.97;5051240;28;20052;-58
2022/03/22 09:17:53;;;;;;;47.58;30.02;;;;;;;19.77;24.91;103275.66;5046638;28;20045;-58
2022/03/22 09:20:20;;;;;;;44.08;27.00;;;;;;;19.70;25.21;103266.03;5048724;28;20049;-53
2022/03/22 09:22:49;;;;;;;52.55;30.48;;;;;;;19.67;25.48;103268.69;5048845;28;20045;-50
2022/03/22 09:25:17;;;;;;;49.47;27.83;;;;;;;19.50;25.11;103264.38;5048051;28;20061;-57
2022/03/22 09:27:45;;;;;;;46.83;28.92;;;;;;;19.19;25.02;103268.91;5048097;28;20532;-59
2022/03/22 09:30:13;;;;;;;41.00;26.70;;;;;;;19.07;25.33;103268.06;5048699;28;20124;-48
2022/03/22 09:32:42;;;;;;;44.13;29.38;;;;;;;18.95;25.40;103268.13;5047448;28;20037;-48
2022/03/22 09:35:10;;;;;;;43.10;27.73;;;;;;;18.70;25.23;103268.16;5051871;28;20140;-47
2022/03/22 09:37:37;;;;;;;40.40;26.55;;;;;;;18.60;25.17;103255.91;5049901;28;20120;-48
2022/03/22 09:40:06;;;;;;;36.97;23.02;;;;;;;18.62;24.79;103258.56;5049694;28;20048;-58
2022/03/22 09:42:33;;;;;;;34.22;22.23;;;;;;;18.54;24.03;103256.78;5049061;28;20051;-57
2022/03/22 09:45:01;;;;;;;36.17;22.65;;;;;;;18.58;23.76;103258.53;5047946;28;20126;-57
2022/03/22 09:47:27;;;;;;;31.75;21.17;;;;;;;18.60;23.59;103246.28;5043200;28;20183;-48
2022/03/22 09:49:55;;;;;;;32.83;20.33;;;;;;;18.59;23.81;103251.53;5047083;28;20437;-51
2022/03/22 09:52:22;;;;;;;39.13;22.08;;;;;;;18.59;23.88;103248.91;5047097;28;20470;-57
2022/03/22 09:54:48;;;;;;;33.22;22.02;;;;;;;18.66;24.08;103240.16;5049170;28;21920;-53
2022/03/22 09:57:16;;;;;;;40.53;24.05;;;;;;;18.74;24.23;103250.69;5046773;28;20057;-50
2022/03/22 09:59:43;;;;;;;31.45;21.58;;;;;;;18.51;23.58;103241.03;5047449;28;20053;-54
2022/03/22 10:02:11;;;;;;;31.65;20.67;;;;;;;18.56;23.62;103241.03;5047294;28;20395;-55
2022/03/22 10:04:39;;;;;;;59.03;21.88;;;;;;;18.57;23.68;103240.16;5047610;28;20056;-53
2022/03/22 10:07:07;;;;;;;34.63;21.52;;;;;;;18.59;23.64;103233.13;5046781;28;20486;-52
2022/03/22 10:09:36;;;;;;;40.30;22.77;;;;;;;18.54;23.77;103229.66;5048618;28;20045;-49
2022/03/22 10:12:03;;;;;;;35.92;22.75;;;;;;;18.46;24.00;103226.16;5047537;28;20044;-47
2022/03/22 10:14:35;;;;;;;28.55;19.15;;;;;;;18.48;23.67;103224.41;5046637;28;20359;-48
2022/03/22 10:17:11;;;;;;;32.88;19.88;;;;;;;18.44;23.29;103220.91;5049850;28;20045;-54
2022/03/22 10:19:43;;;;;;;27.73;18.45;;;;;;;18.43;23.07;103215.66;5049485;28;20041;-59
2022/03/22 10:22:11;;;;;;;29.17;18.70;;;;;;;18.40;23.22;103213.91;5051009;28;20730;-55
2022/03/22 10:24:45;;;;;;;28.10;17.33;;;;;;;18.42;22.87;103206.03;5056338;28;20049;-49
2022/03/22 10:27:30;;;;;;;26.13;15.43;;;;;;;18.43;21.75;103207.78;5056036;28;20057;-57
2022/03/22 10:29:58;;;;;;;27.65;16.73;;;;;;;18.45;21.98;103208.66;5055648;28;20049;-58
2022/03/22 10:32:33;;;;;;;29.70;15.43;;;;;;;18.54;21.83;103209.50;5052828;28;20405;-59
2022/03/22 10:35:11;;;;;;;23.55;16.02;;;;;;;18.63;21.23;103206.00;5050934;28;20094;-60
2022/03/22 10:37:37;;;;;;;20.77;14.93;;;;;;;18.73;21.09;103205.13;5057192;28;20060;-54
2022/03/22 10:40:20;;;;;;;28.60;14.45;;;;;;;18.81;21.09;103203.34;5052456;28;20134;-48
2022/03/22 10:42:47;;;;;;;23.20;15.98;;;;;;;18.88;21.38;103205.06;5049991;28;20049;-52
2022/03/22 10:45:13;;;;;;;20.65;13.48;;;;;;;18.83;20.70;103193.72;5051221;28;20064;-51
2022/03/22 10:47:41;;;;;;;17.25;12.02;;;;;;;18.79;20.27;103184.09;5051970;28;20049;-51
2022/03/22 10:50:08;;;;;;;22.42;12.45;;;;;;;18.84;19.84;103182.31;5052546;28;20150;-52
2022/03/22 10:52:37;;;;;;;24.02;12.02;;;;;;;18.96;20.18;103180.50;5052324;28;20049;-59
2022/03/22 10:55:04;;;;;;;21.75;11.30;;;;;;;18.95;19.38;103178.75;5056269;28;20045;-56
2022/03/22 10:57:37;;;;;;;16.55;10.63;;;;;;;18.84;18.80;103177.06;5053625;28;20049;-54
2022/03/22 11:00:05;;;;;;;15.98;10.63;;;;;;;18.84;18.99;103171.81;5051124;28;20044;-45
2022/03/22 11:02:34;;;;;;;20.33;13.13;;;;;;;18.88;19.42;103173.53;5049506;28;20061;-49
2022/03/22 11:05:05;;;;;;;21.38;12.02;;;;;;;18.96;19.17;103160.34;5051839;28;20469;-59
2022/03/22 11:07:34;;;;;;;25.23;16.98;;;;;;;18.95;20.07;103157.75;5060266;28;20053;-58
2022/03/22 11:10:01;;;;;;;23.77;14.43;;;;;;;18.96;20.51;103154.22;5055318;28;20076;-60
2022/03/22 11:12:27;;;;;;;21.83;14.60;;;;;;;18.91;20.34;103157.75;5053178;28;20049;-56
2022/03/22 11:14:55;;;;;;;27.38;15.93;;;;;;;18.80;20.06;103159.56;5055291;28;20076;-47
2022/03/22 11:17:23;;;;;;;20.80;13.68;;;;;;;18.77;20.09;103149.06;5052043;28;20050;-52
2022/03/22 11:19:50;;;;;;;23.02;14.35;;;;;;;18.80;20.33;103154.31;5053234;28;20417;-52
2022/03/22 11:22:19;;;;;;;24.83;14.43;;;;;;;18.76;20.08;103144.69;5053686;28;20068;-52
2022/03/22 11:24:45;;;;;;;21.98;13.82;;;;;;;18.75;20.25;103145.56;5051367;28;20044;-55
2022/03/22 11:27:12;;;;;;;22.45;12.35;;;;;;;18.76;20.40;103147.31;5052826;28;20501;-57
2022/03/22 11:29:40;;;;;;;35.55;15.55;;;;;;;18.71;19.79;103149.06;5052369;28;20040;-49
2022/03/22 11:34:51;;;;;;;23.23;14.18;;;;;;;18.57;19.81;103140.34;5049865;28;20052;-50
2022/03/22 11:37:30;;;;;;;19.63;12.98;;;;;;;18.60;19.73;103129.81;5051194;28;20049;-51
2022/03/22 11:42:51;;;;;;;21.02;13.52;;;;;;;18.53;20.21;103128.09;5049512;28;20056;-48
2022/03/22 11:45:19;;;;;;;21.52;14.13;;;;;;;18.44;20.23;103122.88;5055294;28;20041;-58
2022/03/22 11:47:49;;;;;;;23.48;13.93;;;;;;;18.39;20.46;103115.00;5050468;28;20143;-57